sensor_id;sensor_type;location;lat;lon;timestamp;pressure;altitude;pressure_sealevel;temperature;humidity
21547;BME280;41275;51.912;4.388;2023-04-26T00:02:14;101956.31;;;12.14;45.16
21547;BME280;41275;51.912;4.388;2023-04-26T00:07:36;101954.50;;;12.15;45.37
21547;BME280;41275;51.912;4.388;2023-04-26T00:13:00;101961.22;;;12.17;45.71
21547;BME280;41275;51.912;4.388;2023-04-26T00:18:22;101956.13;;;12.16;45.58
21547;BME280;41275;51.912;4.388;2023-04-26T00:23:43;101959.41;;;12.11;45.48
21547;BME280;41275;51.912;4.388;2023-04-26T00:29:04;101970.03;;;12.04;45.59
21547;BME280;41275;51.912;4.388;2023-04-26T00:34:31;101966.78;;;11.96;45.81
21547;BME280;41275;51.912;4.388;2023-04-26T00:39:53;101964.94;;;11.90;46.04
21547;BME280;41275;51.912;4.388;2023-04-26T00:45:14;101953.50;;;11.83;46.02
21547;BME280;41275;51.912;4.388;2023-04-26T00:50:35;101957.41;;;11.73;46.36
21547;BME280;41275;51.912;4.388;2023-04-26T00:55:57;101955.38;;;11.62;46.44
21547;BME280;41275;51.912;4.388;2023-04-26T01:01:19;101962.09;;;11.58;46.64
21547;BME280;41275;51.912;4.388;2023-04-26T01:06:41;101952.31;;;11.52;46.45
21547;BME280;41275;51.912;4.388;2023-04-26T01:12:03;101955.38;;;11.49;46.32
21547;BME280;41275;51.912;4.388;2023-04-26T01:17:25;101957.84;;;11.44;46.73
21547;BME280;41275;51.912;4.388;2023-04-26T01:22:46;101962.72;;;11.40;46.59
21547;BME280;41275;51.912;4.388;2023-04-26T01:28:07;101960.66;;;11.36;46.80
21547;BME280;41275;51.912;4.388;2023-04-26T01:33:29;101960.28;;;11.32;46.74
21547;BME280;41275;51.912;4.388;2023-04-26T01:38:50;101960.47;;;11.30;47.19
21547;BME280;41275;51.912;4.388;2023-04-26T01:44:11;101960.06;;;11.27;47.20
21547;BME280;41275;51.912;4.388;2023-04-26T01:49:32;101956.59;;;11.26;47.34
21547;BME280;41275;51.912;4.388;2023-04-26T01:54:53;101965.97;;;11.36;47.20
21547;BME280;41275;51.912;4.388;2023-04-26T02:00:15;101960.66;;;11.36;46.82
21547;BME280;41275;51.912;4.388;2023-04-26T02:05:36;101960.66;;;11.42;46.75
21547;BME280;41275;51.912;4.388;2023-04-26T02:10:57;101950.69;;;11.51;46.87
21547;BME280;41275;51.912;4.388;2023-04-26T02:16:18;101957.81;;;11.57;46.81
21547;BME280;41275;51.912;4.388;2023-04-26T02:22:09;101958.22;;;11.54;46.85
21547;BME280;41275;51.912;4.388;2023-04-26T02:27:30;101957.38;;;11.67;46.85
21547;BME280;41275;51.912;4.388;2023-04-26T02:32:53;101939.25;;;11.70;46.56
21547;BME280;41275;51.912;4.388;2023-04-26T02:38:16;101948.00;;;11.77;46.83
21547;BME280;41275;51.912;4.388;2023-04-26T02:43:37;101934.94;;;12.02;46.57
21547;BME280;41275;51.912;4.388;2023-04-26T02:48:58;101937.53;;;12.22;46.31
21547;BME280;41275;51.912;4.388;2023-04-26T02:54:19;101938.34;;;12.16;46.27
21547;BME280;41275;51.912;4.388;2023-04-26T02:59:41;101940.66;;;11.99;46.05
21547;BME280;41275;51.912;4.388;2023-04-26T03:05:03;101940.66;;;11.86;46.39
21547;BME280;41275;51.912;4.388;2023-04-26T03:10:25;101934.56;;;11.72;46.29
21547;BME280;41275;51.912;4.388;2023-04-26T03:15:46;101935.81;;;11.63;46.35
21547;BME280;41275;51.912;4.388;2023-04-26T03:21:07;101926.22;;;11.55;46.65
21547;BME280;41275;51.912;4.388;2023-04-26T03:26:28;101937.63;;;11.49;47.11
21547;BME280;41275;51.912;4.388;2023-04-26T03:31:49;101928.28;;;11.40;47.05
21547;BME280;41275;51.912;4.388;2023-04-26T03:37:11;101931.72;;;11.41;46.98
21547;BME280;41275;51.912;4.388;2023-04-26T03:42:33;101919.50;;;11.40;47.33
21547;BME280;41275;51.912;4.388;2023-04-26T03:47:54;101916.03;;;11.46;47.25
21547;BME280;41275;51.912;4.388;2023-04-26T03:53:16;101914.00;;;11.48;47.22
21547;BME280;41275;51.912;4.388;2023-04-26T03:58:37;101911.75;;;11.45;46.68
21547;BME280;41275;51.912;4.388;2023-04-26T04:03:59;101903.38;;;11.41;46.76
21547;BME280;41275;51.912;4.388;2023-04-26T04:09:20;101920.72;;;11.44;47.01
21547;BME280;41275;51.912;4.388;2023-04-26T04:14:41;101916.66;;;11.41;47.15
21547;BME280;41275;51.912;4.388;2023-04-26T04:20:02;101918.47;;;11.47;47.18
21547;BME280;41275;51.912;4.388;2023-04-26T04:25:26;101915.81;;;11.47;46.79
21547;BME280;41275;51.912;4.388;2023-04-26T04:30:47;101923.56;;;11.55;46.77
21547;BME280;41275;51.912;4.388;2023-04-26T04:36:08;101923.53;;;11.62;46.86
21547;BME280;41275;51.912;4.388;2023-04-26T04:41:30;101930.88;;;11.80;46.72
21547;BME280;41275;51.912;4.388;2023-04-26T04:46:52;101921.44;;;12.11;46.55
21547;BME280;41275;51.912;4.388;2023-04-26T04:52:13;101922.13;;;12.38;45.94
21547;BME280;41275;51.912;4.388;2023-04-26T04:57:34;101933.91;;;12.55;46.04
21547;BME280;41275;51.912;4.388;2023-04-26T05:02:55;101920.53;;;12.68;45.80
21547;BME280;41275;51.912;4.388;2023-04-26T05:08:17;101926.78;;;12.87;45.81
21547;BME280;41275;51.912;4.388;2023-04-26T05:13:38;101922.38;;;12.99;45.34
21547;BME280;41275;51.912;4.388;2023-04-26T05:18:59;101928.16;;;13.21;45.22
21547;BME280;41275;51.912;4.388;2023-04-26T05:24:20;101932.25;;;13.49;44.71
21547;BME280;41275;51.912;4.388;2023-04-26T05:29:42;101940.25;;;13.67;44.58
21547;BME280;41275;51.912;4.388;2023-04-26T05:35:03;101935.41;;;13.83;44.15
21547;BME280;41275;51.912;4.388;2023-04-26T05:40:25;101938.16;;;13.76;42.29
21547;BME280;41275;51.912;4.388;2023-04-26T05:45:53;101944.41;;;13.82;41.45
21547;BME280;41275;51.912;4.388;2023-04-26T05:51:16;101943.19;;;13.84;40.63
21547;BME280;41275;51.912;4.388;2023-04-26T05:56:37;101952.81;;;14.04;40.03
21547;BME280;41275;51.912;4.388;2023-04-26T06:01:58;101957.16;;;14.16;39.88
21547;BME280;41275;51.912;4.388;2023-04-26T06:07:19;101955.13;;;14.30;39.25
21547;BME280;41275;51.912;4.388;2023-04-26T06:12:41;101969.66;;;14.53;39.19
21547;BME280;41275;51.912;4.388;2023-04-26T06:18:04;101966.91;;;14.59;38.53
21547;BME280;41275;51.912;4.388;2023-04-26T06:23:26;101972.81;;;14.61;38.58
21547;BME280;41275;51.912;4.388;2023-04-26T06:28:47;101971.56;;;14.64;38.21
21547;BME280;41275;51.912;4.388;2023-04-26T06:34:08;101975.84;;;14.65;37.99
21547;BME280;41275;51.912;4.388;2023-04-26T06:39:30;101969.03;;;14.99;37.55
21547;BME280;41275;51.912;4.388;2023-04-26T06:44:51;101972.31;;;15.25;36.72
21547;BME280;41275;51.912;4.388;2023-04-26T06:50:13;101969.94;;;15.05;36.46
21547;BME280;41275;51.912;4.388;2023-04-26T06:55:34;101964.66;;;14.75;37.16
21547;BME280;41275;51.912;4.388;2023-04-26T07:00:56;101965.28;;;14.88;36.74
21547;BME280;41275;51.912;4.388;2023-04-26T07:06:17;101973.63;;;15.34;36.86
21547;BME280;41275;51.912;4.388;2023-04-26T07:11:38;101968.75;;;15.54;35.78
21547;BME280;41275;51.912;4.388;2023-04-26T07:16:59;101978.22;;;15.68;34.90
21547;BME280;41275;51.912;4.388;2023-04-26T07:22:20;101971.00;;;15.92;34.86
21547;BME280;41275;51.912;4.388;2023-04-26T07:27:42;101968.88;;;15.94;34.12
21547;BME280;41275;51.912;4.388;2023-04-26T07:33:03;101970.97;;;16.16;33.37
21547;BME280;41275;51.912;4.388;2023-04-26T07:38:24;101983.88;;;16.48;33.31
21547;BME280;41275;51.912;4.388;2023-04-26T07:43:45;101992.81;;;16.53;32.65
21547;BME280;41275;51.912;4.388;2023-04-26T07:49:07;101983.59;;;16.61;32.56
21547;BME280;41275;51.912;4.388;2023-04-26T07:54:28;101976.69;;;16.48;31.94
21547;BME280;41275;51.912;4.388;2023-04-26T07:59:49;101989.34;;;16.41;31.67
21547;BME280;41275;51.912;4.388;2023-04-26T08:05:10;101992.25;;;16.51;31.17
21547;BME280;41275;51.912;4.388;2023-04-26T08:10:31;101991.53;;;16.56;31.15
21547;BME280;41275;51.912;4.388;2023-04-26T08:15:53;101986.13;;;16.79;29.97
21547;BME280;41275;51.912;4.388;2023-04-26T08:21:14;101989.97;;;16.72;29.25
21547;BME280;41275;51.912;4.388;2023-04-26T08:26:35;101988.19;;;16.49;30.17
21547;BME280;41275;51.912;4.388;2023-04-26T08:31:56;101991.94;;;16.76;29.76
21547;BME280;41275;51.912;4.388;2023-04-26T08:37:17;101982.72;;;16.84;29.09
21547;BME280;41275;51.912;4.388;2023-04-26T08:42:41;101989.84;;;16.78;30.69
21547;BME280;41275;51.912;4.388;2023-04-26T08:48:05;101991.75;;;16.95;31.19
21547;BME280;41275;51.912;4.388;2023-04-26T08:53:33;101991.56;;;16.73;30.82
21547;BME280;41275;51.912;4.388;2023-04-26T08:58:57;101984.94;;;16.87;30.76
21547;BME280;41275;51.912;4.388;2023-04-26T09:04:19;101994.63;;;16.64;30.74
21547;BME280;41275;51.912;4.388;2023-04-26T09:09:41;101992.19;;;16.75;31.05
21547;BME280;41275;51.912;4.388;2023-04-26T09:15:03;101990.44;;;16.68;30.88
21547;BME280;41275;51.912;4.388;2023-04-26T09:20:27;101989.41;;;16.58;31.21
21547;BME280;41275;51.912;4.388;2023-04-26T09:25:48;101999.16;;;16.76;31.10
21547;BME280;41275;51.912;4.388;2023-04-26T09:31:10;101988.94;;;16.61;31.51
21547;BME280;41275;51.912;4.388;2023-04-26T09:36:31;101988.97;;;16.49;31.45
21547;BME280;41275;51.912;4.388;2023-04-26T09:41:52;101990.72;;;16.55;31.33
21547;BME280;41275;51.912;4.388;2023-04-26T09:47:13;101997.38;;;16.69;31.80
21547;BME280;41275;51.912;4.388;2023-04-26T09:52:42;101999.38;;;17.20;31.94
21547;BME280;41275;51.912;4.388;2023-04-26T09:58:08;101995.34;;;17.34;32.58
21547;BME280;41275;51.912;4.388;2023-04-26T10:03:29;102000.78;;;17.39;33.83
21547;BME280;41275;51.912;4.388;2023-04-26T10:08:53;101993.66;;;17.61;33.64
21547;BME280;41275;51.912;4.388;2023-04-26T10:14:14;101996.72;;;17.70;32.79
21547;BME280;41275;51.912;4.388;2023-04-26T10:19:36;101997.81;;;18.30;32.23
21547;BME280;41275;51.912;4.388;2023-04-26T10:24:58;102001.72;;;18.88;31.55
21547;BME280;41275;51.912;4.388;2023-04-26T10:30:20;101994.94;;;19.07;30.79
21547;BME280;41275;51.912;4.388;2023-04-26T10:36:21;101982.78;;;19.64;30.21
21547;BME280;41275;51.912;4.388;2023-04-26T10:41:42;101988.63;;;20.03;29.61
21547;BME280;41275;51.912;4.388;2023-04-26T10:47:05;101972.91;;;19.75;29.31
21547;BME280;41275;51.912;4.388;2023-04-26T10:52:26;101984.25;;;19.18;29.80
21547;BME280;41275;51.912;4.388;2023-04-26T10:57:49;101967.59;;;19.10;29.05
21547;BME280;41275;51.912;4.388;2023-04-26T11:03:11;101969.69;;;19.03;28.57
21547;BME280;41275;51.912;4.388;2023-04-26T11:08:32;101967.81;;;18.55;29.08
21547;BME280;41275;51.912;4.388;2023-04-26T11:13:55;101951.00;;;18.59;29.28
21547;BME280;41275;51.912;4.388;2023-04-26T11:19:16;101961.94;;;19.07;29.05
21547;BME280;41275;51.912;4.388;2023-04-26T11:24:38;101949.25;;;19.34;28.19
21547;BME280;41275;51.912;4.388;2023-04-26T11:30:02;101950.44;;;19.91;28.05
21547;BME280;41275;51.912;4.388;2023-04-26T11:35:24;101944.38;;;20.16;26.92
21547;BME280;41275;51.912;4.388;2023-04-26T11:40:58;101949.09;;;19.94;26.89
21547;BME280;41275;51.912;4.388;2023-04-26T11:46:20;101942.50;;;19.27;27.74
21547;BME280;41275;51.912;4.388;2023-04-26T11:51:42;101954.16;;;18.56;28.47
21547;BME280;41275;51.912;4.388;2023-04-26T11:57:13;101954.44;;;18.11;28.91
21547;BME280;41275;51.912;4.388;2023-04-26T12:02:35;101949.16;;;18.16;28.91
21547;BME280;41275;51.912;4.388;2023-04-26T12:07:58;101951.63;;;18.45;29.09
21547;BME280;41275;51.912;4.388;2023-04-26T12:13:19;101952.53;;;18.77;28.88
21547;BME280;41275;51.912;4.388;2023-04-26T12:18:40;101954.34;;;18.50;29.13
21547;BME280;41275;51.912;4.388;2023-04-26T12:24:02;101942.56;;;18.51;29.29
21547;BME280;41275;51.912;4.388;2023-04-26T12:29:23;101945.88;;;21.26;27.46
21547;BME280;41275;51.912;4.388;2023-04-26T12:34:44;101943.84;;;24.03;24.49
21547;BME280;41275;51.912;4.388;2023-04-26T12:40:06;101940.88;;;25.45;22.49
21547;BME280;41275;51.912;4.388;2023-04-26T12:45:29;101948.28;;;25.54;22.06
21547;BME280;41275;51.912;4.388;2023-04-26T12:50:50;101948.47;;;24.03;22.11
21547;BME280;41275;51.912;4.388;2023-04-26T12:56:11;101945.88;;;22.76;23.52
21547;BME280;41275;51.912;4.388;2023-04-26T13:01:33;101949.88;;;21.69;24.29
21547;BME280;41275;51.912;4.388;2023-04-26T13:06:54;101951.00;;;21.02;24.92
21547;BME280;41275;51.912;4.388;2023-04-26T13:12:15;101956.63;;;20.70;25.09
21547;BME280;41275;51.912;4.388;2023-04-26T13:17:36;101961.16;;;19.91;25.95
21547;BME280;41275;51.912;4.388;2023-04-26T13:22:58;101949.50;;;19.65;26.04
21547;BME280;41275;51.912;4.388;2023-04-26T13:28:19;101953.66;;;19.51;26.42
21547;BME280;41275;51.912;4.388;2023-04-26T13:33:40;101955.97;;;20.32;25.27
21547;BME280;41275;51.912;4.388;2023-04-26T13:39:02;101962.50;;;20.51;24.98
21547;BME280;41275;51.912;4.388;2023-04-26T13:44:25;101955.03;;;21.45;24.31
21547;BME280;41275;51.912;4.388;2023-04-26T13:49:46;101955.72;;;21.92;23.36
21547;BME280;41275;51.912;4.388;2023-04-26T13:55:08;101949.63;;;21.61;24.17
21547;BME280;41275;51.912;4.388;2023-04-26T14:00:32;101947.78;;;21.20;24.02
21547;BME280;41275;51.912;4.388;2023-04-26T14:05:53;101951.03;;;21.32;23.59
21547;BME280;41275;51.912;4.388;2023-04-26T14:11:14;101942.66;;;21.03;23.91
21547;BME280;41275;51.912;4.388;2023-04-26T14:16:36;101957.22;;;21.38;24.19
21547;BME280;41275;51.912;4.388;2023-04-26T14:21:57;101950.47;;;21.30;24.32
21547;BME280;41275;51.912;4.388;2023-04-26T14:27:18;101951.53;;;21.19;24.66
21547;BME280;41275;51.912;4.388;2023-04-26T14:32:40;101947.41;;;21.83;24.21
21547;BME280;41275;51.912;4.388;2023-04-26T14:38:01;101952.31;;;22.36;23.38
21547;BME280;41275;51.912;4.388;2023-04-26T14:43:22;101952.03;;;22.82;23.16
21547;BME280;41275;51.912;4.388;2023-04-26T14:48:43;101951.59;;;23.09;22.79
21547;BME280;41275;51.912;4.388;2023-04-26T14:54:05;101950.28;;;23.01;22.55
21547;BME280;41275;51.912;4.388;2023-04-26T14:59:26;101947.69;;;22.86;22.23
21547;BME280;41275;51.912;4.388;2023-04-26T15:04:47;101941.78;;;22.84;22.71
21547;BME280;41275;51.912;4.388;2023-04-26T15:10:08;101940.91;;;23.22;22.24
21547;BME280;41275;51.912;4.388;2023-04-26T15:15:29;101942.69;;;23.66;21.48
21547;BME280;41275;51.912;4.388;2023-04-26T15:20:51;101945.22;;;22.94;21.64
21547;BME280;41275;51.912;4.388;2023-04-26T15:26:13;101936.00;;;23.30;22.02
21547;BME280;41275;51.912;4.388;2023-04-26T15:31:34;101941.31;;;24.31;21.20
21547;BME280;41275;51.912;4.388;2023-04-26T15:36:58;101938.53;;;24.92;20.74
21547;BME280;41275;51.912;4.388;2023-04-26T15:42:20;101929.66;;;24.54;20.91
21547;BME280;41275;51.912;4.388;2023-04-26T15:47:41;101921.38;;;23.84;21.46
21547;BME280;41275;51.912;4.388;2023-04-26T15:53:02;101942.53;;;22.89;22.58
21547;BME280;41275;51.912;4.388;2023-04-26T15:58:24;101936.63;;;22.43;22.95
21547;BME280;41275;51.912;4.388;2023-04-26T16:03:45;101934.97;;;21.92;23.77
21547;BME280;41275;51.912;4.388;2023-04-26T16:09:06;101933.06;;;21.98;24.01
21547;BME280;41275;51.912;4.388;2023-04-26T16:14:28;101938.56;;;21.67;24.35
21547;BME280;41275;51.912;4.388;2023-04-26T16:19:50;101947.78;;;21.15;24.98
21547;BME280;41275;51.912;4.388;2023-04-26T16:25:11;101928.25;;;20.21;26.04
21547;BME280;41275;51.912;4.388;2023-04-26T16:30:32;101932.81;;;20.21;26.84
21547;BME280;41275;51.912;4.388;2023-04-26T16:35:53;101929.09;;;20.37;26.74
21547;BME280;41275;51.912;4.388;2023-04-26T16:41:15;101939.75;;;20.06;26.82
21547;BME280;41275;51.912;4.388;2023-04-26T16:46:37;101943.34;;;19.70;27.05
21547;BME280;41275;51.912;4.388;2023-04-26T16:51:58;101947.16;;;19.42;27.96
21547;BME280;41275;51.912;4.388;2023-04-26T16:57:19;101942.28;;;19.01;28.23
21547;BME280;41275;51.912;4.388;2023-04-26T17:02:40;101960.41;;;18.89;28.48
21547;BME280;41275;51.912;4.388;2023-04-26T17:08:02;101951.41;;;18.73;28.91
21547;BME280;41275;51.912;4.388;2023-04-26T17:13:23;101960.69;;;18.65;28.87
21547;BME280;41275;51.912;4.388;2023-04-26T17:18:49;101957.81;;;18.45;29.13
21547;BME280;41275;51.912;4.388;2023-04-26T17:24:10;101958.13;;;18.27;29.25
21547;BME280;41275;51.912;4.388;2023-04-26T17:29:31;101965.78;;;18.18;29.86
21547;BME280;41275;51.912;4.388;2023-04-26T17:34:53;101962.69;;;18.04;29.54
21547;BME280;41275;51.912;4.388;2023-04-26T17:40:15;101973.09;;;17.84;29.53
21547;BME280;41275;51.912;4.388;2023-04-26T17:45:37;101974.22;;;17.88;29.84
21547;BME280;41275;51.912;4.388;2023-04-26T17:50:58;101984.00;;;17.77;29.98
21547;BME280;41275;51.912;4.388;2023-04-26T17:56:20;101980.44;;;17.55;30.55
21547;BME280;41275;51.912;4.388;2023-04-26T18:01:41;101980.53;;;17.26;30.54
21547;BME280;41275;51.912;4.388;2023-04-26T18:07:02;101990.16;;;17.10;31.07
21547;BME280;41275;51.912;4.388;2023-04-26T18:12:24;101988.41;;;16.87;31.34
21547;BME280;41275;51.912;4.388;2023-04-26T18:17:45;101993.09;;;16.80;31.21
21547;BME280;41275;51.912;4.388;2023-04-26T18:23:07;101995.34;;;16.60;31.50
21547;BME280;41275;51.912;4.388;2023-04-26T18:28:28;101991.94;;;16.36;32.06
21547;BME280;41275;51.912;4.388;2023-04-26T18:33:49;101997.75;;;16.21;32.36
21547;BME280;41275;51.912;4.388;2023-04-26T18:39:11;102004.63;;;16.05;32.95
21547;BME280;41275;51.912;4.388;2023-04-26T18:44:32;101995.13;;;15.86;33.07
21547;BME280;41275;51.912;4.388;2023-04-26T18:49:53;102002.69;;;15.65;34.27
21547;BME280;41275;51.912;4.388;2023-04-26T18:55:14;102008.31;;;15.57;34.63
21547;BME280;41275;51.912;4.388;2023-04-26T19:00:36;102005.38;;;15.35;34.77
21547;BME280;41275;51.912;4.388;2023-04-26T19:05:57;102017.88;;;15.23;35.09
21547;BME280;41275;51.912;4.388;2023-04-26T19:11:19;102013.69;;;15.15;35.37
21547;BME280;41275;51.912;4.388;2023-04-26T19:16:40;102016.91;;;15.06;35.41
21547;BME280;41275;51.912;4.388;2023-04-26T19:22:01;102024.06;;;14.93;35.94
21547;BME280;41275;51.912;4.388;2023-04-26T19:27:23;102026.22;;;14.85;35.91
21547;BME280;41275;51.912;4.388;2023-04-26T19:32:44;102032.91;;;14.76;36.23
21547;BME280;41275;51.912;4.388;2023-04-26T19:38:05;102033.78;;;14.69;36.68
21547;BME280;41275;51.912;4.388;2023-04-26T19:43:27;102035.94;;;14.61;36.52
21547;BME280;41275;51.912;4.388;2023-04-26T19:48:48;102026.63;;;14.52;36.92
21547;BME280;41275;51.912;4.388;2023-04-26T19:54:09;102028.09;;;14.47;37.05
21547;BME280;41275;51.912;4.388;2023-04-26T19:59:30;102026.53;;;14.40;36.99
21547;BME280;41275;51.912;4.388;2023-04-26T20:04:51;102021.78;;;14.42;37.20
21547;BME280;41275;51.912;4.388;2023-04-26T20:10:13;102029.88;;;14.35;37.63
21547;BME280;41275;51.912;4.388;2023-04-26T20:15:34;102036.06;;;14.29;37.74
21547;BME280;41275;51.912;4.388;2023-04-26T20:20:55;102035.31;;;14.22;38.07
21547;BME280;41275;51.912;4.388;2023-04-26T20:26:17;102028.00;;;14.17;37.79
21547;BME280;41275;51.912;4.388;2023-04-26T20:31:38;102035.59;;;14.14;38.25
21547;BME280;41275;51.912;4.388;2023-04-26T20:36:59;102046.75;;;14.04;38.11
21547;BME280;41275;51.912;4.388;2023-04-26T20:42:21;102037.22;;;13.96;38.21
21547;BME280;41275;51.912;4.388;2023-04-26T20:47:43;102042.38;;;13.91;37.84
21547;BME280;41275;51.912;4.388;2023-04-26T20:53:04;102045.25;;;13.90;37.89
21547;BME280;41275;51.912;4.388;2023-04-26T20:58:26;102045.91;;;13.85;37.97
21547;BME280;41275;51.912;4.388;2023-04-26T21:03:47;102042.88;;;13.82;37.68
21547;BME280;41275;51.912;4.388;2023-04-26T21:09:08;102042.72;;;13.77;38.05
21547;BME280;41275;51.912;4.388;2023-04-26T21:14:30;102039.88;;;13.71;38.13
21547;BME280;41275;51.912;4.388;2023-04-26T21:19:51;102042.38;;;13.66;38.31
21547;BME280;41275;51.912;4.388;2023-04-26T21:25:12;102038.53;;;13.62;38.27
21547;BME280;41275;51.912;4.388;2023-04-26T21:30:36;102040.78;;;13.59;38.68
21547;BME280;41275;51.912;4.388;2023-04-26T21:35:58;102043.06;;;13.55;38.39
21547;BME280;41275;51.912;4.388;2023-04-26T21:41:19;102039.88;;;13.46;38.37
21547;BME280;41275;51.912;4.388;2023-04-26T21:46:41;102048.88;;;13.45;38.73
21547;BME280;41275;51.912;4.388;2023-04-26T21:52:02;102042.13;;;13.43;38.96
21547;BME280;41275;51.912;4.388;2023-04-26T21:57:23;102044.88;;;13.36;39.03
21547;BME280;41275;51.912;4.388;2023-04-26T22:02:44;102042.00;;;13.31;39.32
21547;BME280;41275;51.912;4.388;2023-04-26T22:08:05;102033.06;;;13.25;39.37
21547;BME280;41275;51.912;4.388;2023-04-26T22:13:27;102033.69;;;13.21;39.49
21547;BME280;41275;51.912;4.388;2023-04-26T22:18:48;102027.16;;;13.17;39.96
21547;BME280;41275;51.912;4.388;2023-04-26T22:24:10;102038.41;;;13.12;40.12
21547;BME280;41275;51.912;4.388;2023-04-26T22:29:31;102042.91;;;13.12;40.09
21547;BME280;41275;51.912;4.388;2023-04-26T22:34:52;102042.34;;;13.10;40.11
21547;BME280;41275;51.912;4.388;2023-04-26T22:40:14;102044.78;;;13.05;40.60
21547;BME280;41275;51.912;4.388;2023-04-26T22:45:35;102045.81;;;13.03;40.63
21547;BME280;41275;51.912;4.388;2023-04-26T22:50:56;102052.41;;;13.01;40.81
21547;BME280;41275;51.912;4.388;2023-04-26T22:56:19;102058.13;;;12.98;41.08
21547;BME280;41275;51.912;4.388;2023-04-26T23:01:41;102060.78;;;12.98;40.94
21547;BME280;41275;51.912;4.388;2023-04-26T23:07:02;102063.25;;;12.93;40.91
21547;BME280;41275;51.912;4.388;2023-04-26T23:12:23;102071.66;;;12.90;41.41
21547;BME280;41275;51.912;4.388;2023-04-26T23:17:44;102071.66;;;12.90;41.41
21547;BME280;41275;51.912;4.388;2023-04-26T23:23:06;102069.84;;;12.84;41.70
21547;BME280;41275;51.912;4.388;2023-04-26T23:28:27;102078.63;;;12.84;41.77
21547;BME280;41275;51.912;4.388;2023-04-26T23:33:48;102074.97;;;12.78;41.96
21547;BME280;41275;51.912;4.388;2023-04-26T23:39:10;102087.84;;;12.75;41.98
21547;BME280;41275;51.912;4.388;2023-04-26T23:44:31;102091.53;;;12.74;41.68
21547;BME280;41275;51.912;4.388;2023-04-26T23:49:52;102097.03;;;12.72;42.10
21547;BME280;41275;51.912;4.388;2023-04-26T23:55:13;102085.22;;;12.68;42.21
